createdAt,value
2022-10-26T00:00:23.939Z,27.20
2022-10-26T00:03:27.225Z,27.58
2022-10-26T00:06:30.501Z,27.42
2022-10-26T00:09:33.794Z,28.25
2022-10-26T00:12:38.529Z,28.45
2022-10-26T00:15:43.009Z,27.80
2022-10-26T00:18:47.060Z,29.15
2022-10-26T00:21:50.573Z,28.20
2022-10-26T00:24:54.341Z,27.75
2022-10-26T00:27:58.980Z,28.40
2022-10-26T00:31:03.543Z,27.73
2022-10-26T00:34:07.107Z,27.92
2022-10-26T00:37:10.824Z,28.38
2022-10-26T00:40:14.352Z,27.20
2022-10-26T00:43:37.247Z,28.80
2022-10-26T00:46:40.545Z,27.63
2022-10-26T00:49:46.744Z,28.35
2022-10-26T00:52:51.485Z,28.10
2022-10-26T00:55:55.828Z,28.10
2022-10-26T00:59:05.583Z,27.98
2022-10-26T01:02:09.365Z,29.00
2022-10-26T01:05:13.520Z,27.85
2022-10-26T01:08:18.310Z,29.35
2022-10-26T01:11:22.142Z,27.08
2022-10-26T01:14:29.135Z,27.00
2022-10-26T01:17:47.603Z,27.25
2022-10-26T01:21:15.017Z,26.40
2022-10-26T01:24:46.478Z,26.45
2022-10-26T01:27:52.286Z,25.38
2022-10-26T01:31:01.724Z,25.95
2022-10-26T01:34:10.889Z,26.98
2022-10-26T01:37:16.414Z,26.20
2022-10-26T01:40:26.925Z,26.88
2022-10-26T01:43:34.513Z,25.05
2022-10-26T01:46:41.783Z,25.63
2022-10-26T01:49:48.673Z,23.63
2022-10-26T01:52:52.222Z,24.42
2022-10-26T01:55:56.596Z,25.17
2022-10-26T01:59:32.102Z,25.50
2022-10-26T02:02:58.928Z,24.98
2022-10-26T02:06:12.436Z,23.33
2022-10-26T02:09:24.870Z,22.67
2022-10-26T02:12:35.383Z,23.13
2022-10-26T02:15:48.025Z,23.08
2022-10-26T02:19:00.869Z,22.00
2022-10-26T02:22:10.827Z,21.33
2022-10-26T02:25:19.317Z,19.17
2022-10-26T02:28:30.041Z,20.50
2022-10-26T02:31:34.928Z,20.30
2022-10-26T02:34:41.025Z,21.00
2022-10-26T02:37:46.971Z,20.63
2022-10-26T02:40:52.925Z,19.42
2022-10-26T02:44:01.481Z,19.17
2022-10-26T02:47:04.759Z,19.33
2022-10-26T02:50:10.590Z,20.83
2022-10-26T02:53:23.249Z,22.40
2022-10-26T02:56:30.710Z,22.67
2022-10-26T02:59:37.755Z,22.23
2022-10-26T03:02:46.083Z,22.00
2022-10-26T03:05:53.470Z,22.08
2022-10-26T03:08:56.987Z,21.83
2022-10-26T03:12:00.443Z,20.85
2022-10-26T03:15:04.186Z,21.45
2022-10-26T03:18:07.526Z,21.60
2022-10-26T03:21:12.551Z,22.30
2022-10-26T03:24:16.201Z,23.15
2022-10-26T03:27:19.855Z,21.83
2022-10-26T03:30:23.161Z,20.77
2022-10-26T03:33:27.311Z,21.58
2022-10-26T03:36:33.005Z,21.77
2022-10-26T03:39:36.226Z,22.75
2022-10-26T03:42:40.489Z,22.55
2022-10-26T03:45:44.266Z,22.17
2022-10-26T03:48:47.483Z,21.92
2022-10-26T03:51:52.154Z,20.90
2022-10-26T03:54:55.393Z,20.52
2022-10-26T03:57:58.626Z,21.73
2022-10-26T04:01:01.804Z,21.90
2022-10-26T04:04:05.070Z,22.63
2022-10-26T04:07:09.790Z,24.77
2022-10-26T04:10:13.070Z,23.50
2022-10-26T04:13:16.371Z,24.15
2022-10-26T04:16:19.605Z,24.52
2022-10-26T04:19:22.864Z,24.60
2022-10-26T04:22:27.503Z,25.88
2022-10-26T04:25:33.071Z,25.15
2022-10-26T04:28:36.773Z,26.17
2022-10-26T04:31:41.338Z,25.77
2022-10-26T04:34:44.601Z,26.42
2022-10-26T04:37:49.997Z,27.65
2022-10-26T04:40:53.480Z,28.17
2022-10-26T04:43:57.024Z,29.00
2022-10-26T04:47:06.258Z,29.30
2022-10-26T04:50:11.993Z,29.67
2022-10-26T04:53:16.784Z,30.52
2022-10-26T04:56:19.974Z,30.20
2022-10-26T04:59:23.224Z,31.95
2022-10-26T05:02:26.748Z,32.28
2022-10-26T05:05:31.702Z,33.03
2022-10-26T05:08:36.360Z,33.60
2022-10-26T05:11:39.688Z,34.03
2022-10-26T05:14:42.989Z,36.03
2022-10-26T05:17:46.575Z,36.83
2022-10-26T05:20:50.771Z,37.00
2022-10-26T05:23:55.639Z,36.92
2022-10-26T05:26:59.023Z,37.15
2022-10-26T05:30:03.167Z,37.75
2022-10-26T05:33:07.602Z,38.28
2022-10-26T05:36:11.080Z,38.50
2022-10-26T05:39:15.715Z,38.45
2022-10-26T05:42:20.608Z,39.53
2022-10-26T05:45:23.940Z,72.43
2022-10-26T05:48:27.123Z,40.90
2022-10-26T05:51:30.308Z,39.83
2022-10-26T05:54:34.843Z,40.38
2022-10-26T05:57:38.874Z,41.00
2022-10-26T06:00:51.113Z,44.05
2022-10-26T06:04:11.002Z,41.72
2022-10-26T06:07:16.399Z,42.90
2022-10-26T06:10:22.030Z,44.53
2022-10-26T06:13:25.899Z,44.10
2022-10-26T06:16:39.961Z,43.20
2022-10-26T06:19:57.425Z,42.95
2022-10-26T06:23:19.151Z,44.38
2022-10-26T06:26:34.738Z,43.58
2022-10-26T06:29:49.361Z,44.90
2022-10-26T06:33:01.431Z,43.55
2022-10-26T06:36:23.964Z,45.20
2022-10-26T06:39:32.998Z,46.30
2022-10-26T06:42:38.504Z,45.35
2022-10-26T06:45:44.906Z,46.63
2022-10-26T06:48:57.858Z,45.83
2022-10-26T06:52:03.992Z,46.20
2022-10-26T06:55:14.241Z,45.30
2022-10-26T06:58:20.581Z,46.80
2022-10-26T07:01:24.330Z,45.78
2022-10-26T07:04:27.827Z,45.60
2022-10-26T07:07:33.101Z,43.22
2022-10-26T07:10:38.939Z,44.33
2022-10-26T07:13:45.219Z,45.33
2022-10-26T07:16:48.555Z,43.08
2022-10-26T07:19:51.854Z,39.63
2022-10-26T07:22:55.735Z,39.03
2022-10-26T07:26:00.862Z,35.80
2022-10-26T07:29:05.654Z,34.85
2022-10-26T07:32:09.082Z,34.47
2022-10-26T07:35:12.885Z,35.08
2022-10-26T07:38:16.160Z,35.72
2022-10-26T07:41:19.381Z,35.63
2022-10-26T07:44:24.069Z,35.13
2022-10-26T07:47:27.400Z,32.17
2022-10-26T07:50:30.803Z,32.30
2022-10-26T07:53:33.999Z,32.83
2022-10-26T07:56:37.324Z,116.95
2022-10-26T07:59:41.998Z,39.72
2022-10-26T08:02:45.254Z,30.42
2022-10-26T08:05:51.179Z,29.00
2022-10-26T08:08:54.587Z,29.58
2022-10-26T08:11:57.755Z,27.95
2022-10-26T08:15:02.399Z,27.90
2022-10-26T08:18:06.608Z,27.92
2022-10-26T08:21:15.626Z,25.63
2022-10-26T08:24:24.878Z,24.85
2022-10-26T08:27:28.811Z,23.35
2022-10-26T08:33:40.805Z,22.38
2022-10-26T08:36:47.309Z,21.02
2022-10-26T08:39:53.949Z,21.58
2022-10-26T08:43:05.328Z,20.75
2022-10-26T08:46:14.908Z,15.15
2022-10-26T08:49:22.443Z,14.90
2022-10-26T08:52:31.247Z,18.77
2022-10-26T08:58:52.452Z,22.08
2022-10-26T09:01:57.133Z,18.77
2022-10-26T09:05:01.398Z,26.45
2022-10-26T09:08:14.031Z,20.05
2022-10-26T09:11:29.554Z,19.85
2022-10-26T09:14:43.578Z,44.47
2022-10-26T09:17:58.642Z,21.05
2022-10-26T09:21:13.207Z,21.65
2022-10-26T09:24:22.038Z,21.23
2022-10-26T09:27:29.180Z,19.45
2022-10-26T09:30:32.776Z,21.17
2022-10-26T09:33:40.560Z,20.77
2022-10-26T09:36:43.842Z,20.98
2022-10-26T09:39:53.347Z,20.17
2022-10-26T09:43:01.725Z,21.77
2022-10-26T09:46:05.145Z,21.02
2022-10-26T09:49:13.913Z,21.83
2022-10-26T09:52:17.409Z,20.00
2022-10-26T09:55:22.861Z,21.85
2022-10-26T09:58:29.846Z,21.52
2022-10-26T10:01:38.297Z,22.08
2022-10-26T10:04:49.310Z,21.73
2022-10-26T10:07:52.853Z,20.48
2022-10-26T10:10:58.900Z,20.52
2022-10-26T10:14:09.462Z,20.48
2022-10-26T10:17:22.484Z,19.38
2022-10-26T10:20:30.041Z,21.58
2022-10-26T10:23:34.737Z,19.38
2022-10-26T10:26:57.801Z,40.90
2022-10-26T10:30:21.666Z,18.83
2022-10-26T10:33:32.849Z,18.95
2022-10-26T10:36:37.495Z,18.90
2022-10-26T10:39:42.901Z,19.17
2022-10-26T10:42:48.249Z,20.27
2022-10-26T10:45:55.845Z,20.48
2022-10-26T10:49:05.445Z,21.05
2022-10-26T10:52:23.621Z,20.27
2022-10-26T10:55:27.325Z,18.25
2022-10-26T10:58:36.015Z,18.38
2022-10-26T11:01:41.543Z,18.55
2022-10-26T11:05:02.049Z,18.55
2022-10-26T11:08:09.682Z,17.15
2022-10-26T11:11:16.742Z,16.08
2022-10-26T11:14:25.089Z,14.45
2022-10-26T11:17:32.713Z,12.93
2022-10-26T11:20:39.780Z,12.40
2022-10-26T11:23:50.728Z,10.90
2022-10-26T11:26:57.838Z,10.75
2022-10-26T11:30:06.026Z,10.10
2022-10-26T11:33:16.655Z,9.95
2022-10-26T11:36:23.567Z,9.13
2022-10-26T11:39:37.656Z,10.70
2022-10-26T11:42:46.110Z,10.05
2022-10-26T11:49:11.815Z,10.05
2022-10-26T11:52:19.415Z,10.05
2022-10-26T11:55:25.044Z,10.55
2022-10-26T11:58:29.795Z,10.18
2022-10-26T12:01:35.065Z,10.27
2022-10-26T12:04:39.686Z,10.13
2022-10-26T12:07:48.119Z,10.20
2022-10-26T12:11:02.673Z,9.85
2022-10-26T12:14:15.855Z,10.23
2022-10-26T12:17:24.865Z,11.27
2022-10-26T12:21:03.698Z,16.80
2022-10-26T12:24:26.811Z,10.68
2022-10-26T12:27:51.970Z,10.60
2022-10-26T12:31:15.172Z,9.32
2022-10-26T12:34:25.598Z,9.90
2022-10-26T12:37:37.875Z,14.25
2022-10-26T12:40:44.925Z,11.23
2022-10-26T12:43:49.982Z,11.13
2022-10-26T12:46:53.495Z,10.25
2022-10-26T12:50:00.821Z,11.40
2022-10-26T12:53:12.048Z,11.07
2022-10-26T12:56:21.385Z,10.82
2022-10-26T12:59:31.959Z,10.43
2022-10-26T13:02:52.356Z,10.05
2022-10-26T13:06:18.908Z,10.55
2022-10-26T13:09:24.468Z,10.27
2022-10-26T13:12:29.095Z,9.88
2022-10-26T13:15:39.814Z,9.73
2022-10-26T13:18:45.028Z,11.45
2022-10-26T13:21:50.313Z,10.18
2022-10-26T13:24:56.459Z,11.52
2022-10-26T13:28:06.092Z,11.43
2022-10-26T13:31:18.431Z,8.05
2022-10-26T13:34:23.749Z,12.55
2022-10-26T13:37:30.264Z,12.82
2022-10-26T13:40:34.463Z,14.43
2022-10-26T13:43:38.639Z,13.52
2022-10-26T13:46:43.646Z,14.23
2022-10-26T13:49:49.375Z,13.45
2022-10-26T13:52:55.667Z,14.25
2022-10-26T13:56:05.722Z,14.38
2022-10-26T13:59:12.080Z,13.73
2022-10-26T14:02:24.655Z,13.35
2022-10-26T14:05:28.166Z,13.73
2022-10-26T14:08:31.583Z,13.85
2022-10-26T14:11:38.390Z,13.35
2022-10-26T14:14:42.263Z,14.27
2022-10-26T14:17:51.901Z,15.35
2022-10-26T14:20:59.732Z,14.55
2022-10-26T14:24:07.639Z,15.13
2022-10-26T14:27:17.075Z,22.77
2022-10-26T14:30:25.909Z,15.13
2022-10-26T14:33:30.669Z,18.08
2022-10-26T14:36:40.043Z,17.88
2022-10-26T14:39:45.846Z,20.55
2022-10-26T14:42:51.528Z,22.75
2022-10-26T14:45:57.361Z,19.63
2022-10-26T14:49:03.979Z,18.75
2022-10-26T14:52:08.200Z,22.73
2022-10-26T14:55:16.100Z,26.08
2022-10-26T14:58:26.736Z,27.13
2022-10-26T15:01:36.549Z,30.58
2022-10-26T15:04:43.706Z,25.05
2022-10-26T15:07:47.545Z,35.85
2022-10-26T15:10:51.872Z,39.35
2022-10-26T15:13:55.861Z,39.42
2022-10-26T15:17:00.866Z,42.15
2022-10-26T15:20:07.683Z,40.90
2022-10-26T15:23:15.699Z,38.47
2022-10-26T15:26:19.187Z,36.55
2022-10-26T15:29:41.218Z,36.58
2022-10-26T15:32:44.573Z,34.13
2022-10-26T15:35:49.279Z,38.30
2022-10-26T15:38:56.243Z,40.38
2022-10-26T15:42:00.251Z,44.15
2022-10-26T15:45:04.273Z,41.05
2022-10-26T15:48:25.665Z,46.72
2022-10-26T15:51:33.098Z,49.05
2022-10-26T15:54:36.310Z,50.67
2022-10-26T15:57:40.219Z,53.90
2022-10-26T16:00:43.525Z,67.20
2022-10-26T16:03:47.050Z,76.70
2022-10-26T16:06:51.710Z,77.47
2022-10-26T16:10:04.994Z,68.38
2022-10-26T16:13:13.970Z,69.38
2022-10-26T16:16:18.575Z,84.93
2022-10-26T16:19:31.125Z,86.80
2022-10-26T16:22:38.330Z,73.65
2022-10-26T16:25:44.528Z,71.15
2022-10-26T16:28:47.994Z,72.28
2022-10-26T16:31:51.426Z,72.05
2022-10-26T16:34:54.724Z,66.43
2022-10-26T16:37:59.928Z,60.22
2022-10-26T16:41:04.267Z,60.63
2022-10-26T16:44:08.040Z,66.78
2022-10-26T16:47:11.905Z,70.82
2022-10-26T16:50:15.569Z,82.95
2022-10-26T16:53:20.677Z,87.13
2022-10-26T16:56:26.113Z,76.53
2022-10-26T16:59:30.282Z,82.05
2022-10-26T17:02:33.740Z,78.93
2022-10-26T17:05:37.225Z,74.95
2022-10-26T17:08:42.155Z,70.18
2022-10-26T17:11:47.535Z,69.82
2022-10-26T17:14:51.420Z,68.43
2022-10-26T17:17:56.794Z,70.95
2022-10-26T17:21:01.713Z,79.65
2022-10-26T17:24:07.681Z,78.25
2022-10-26T17:27:11.938Z,72.85
2022-10-26T17:30:15.891Z,72.22
2022-10-26T17:33:24.115Z,76.20
2022-10-26T17:36:31.784Z,76.28
2022-10-26T17:39:40.122Z,75.03
2022-10-26T17:42:44.103Z,65.72
2022-10-26T17:48:57.077Z,69.82
2022-10-26T17:52:00.680Z,70.60
2022-10-26T17:55:06.112Z,68.53
2022-10-26T17:58:10.056Z,71.00
2022-10-26T18:01:14.924Z,73.78
2022-10-26T18:04:18.429Z,80.90
2022-10-26T18:07:21.949Z,82.78
2022-10-26T18:10:37.553Z,88.13
2022-10-26T18:13:41.740Z,86.18
2022-10-26T18:16:45.299Z,90.18
2022-10-26T18:19:48.850Z,96.53
2022-10-26T18:22:52.351Z,95.32
2022-10-26T18:26:08.342Z,87.20
2022-10-26T18:29:14.879Z,94.30
2022-10-26T18:32:18.226Z,105.75
2022-10-26T18:35:21.609Z,117.57
2022-10-26T18:38:24.918Z,110.75
2022-10-26T18:41:29.611Z,102.45
2022-10-26T18:44:32.890Z,102.55
2022-10-26T18:47:36.309Z,98.93
2022-10-26T18:50:39.651Z,94.40
2022-10-26T18:53:44.471Z,92.55
2022-10-26T18:56:49.695Z,104.15
2022-10-26T18:59:55.006Z,114.18
2022-10-26T19:02:59.483Z,123.18
2022-10-26T19:06:10.181Z,123.18
2022-10-26T19:09:14.646Z,125.63
2022-10-26T19:12:19.597Z,125.03
2022-10-26T19:15:23.250Z,128.40
2022-10-26T19:18:29.252Z,129.85
2022-10-26T19:21:33.294Z,123.95
2022-10-26T19:24:36.906Z,124.72
2022-10-26T19:27:41.742Z,118.03
2022-10-26T19:30:45.074Z,109.05
2022-10-26T19:33:48.503Z,105.53
2022-10-26T19:36:51.822Z,98.50
2022-10-26T19:39:55.238Z,100.70
2022-10-26T19:43:00.180Z,93.55
2022-10-26T19:46:08.787Z,92.25
2022-10-26T19:49:13.691Z,91.30
2022-10-26T19:55:20.482Z,85.43
2022-10-26T19:58:25.816Z,83.03
2022-10-26T20:01:29.366Z,80.85
2022-10-26T20:04:32.874Z,80.10
2022-10-26T20:07:36.803Z,80.50
2022-10-26T20:10:42.810Z,78.53
2022-10-26T20:13:48.747Z,77.55
2022-10-26T20:17:01.189Z,76.45
2022-10-26T20:20:05.213Z,79.07
2022-10-26T20:23:10.640Z,81.68
2022-10-26T20:26:18.689Z,79.45
2022-10-26T20:29:23.593Z,80.22
2022-10-26T20:32:28.365Z,77.97
2022-10-26T20:35:33.092Z,81.18
2022-10-26T20:38:37.086Z,78.93
2022-10-26T20:41:43.564Z,81.60
2022-10-26T20:44:47.662Z,80.47
2022-10-26T20:47:54.546Z,78.95
2022-10-26T20:51:04.731Z,83.38
2022-10-26T20:54:16.778Z,81.18
2022-10-26T20:57:26.828Z,83.88
2022-10-26T21:00:33.391Z,79.90
2022-10-26T21:03:38.243Z,76.18
2022-10-26T21:06:41.619Z,74.30
2022-10-26T21:09:44.890Z,78.07
2022-10-26T21:12:48.809Z,74.82
2022-10-26T21:15:52.429Z,76.60
2022-10-26T21:18:57.209Z,71.55
2022-10-26T21:22:00.518Z,76.60
2022-10-26T21:25:03.759Z,71.70
2022-10-26T21:28:07.991Z,71.32
2022-10-26T21:31:12.973Z,75.07
2022-10-26T21:34:17.635Z,73.65
2022-10-26T21:37:21.033Z,75.72
2022-10-26T21:40:24.211Z,75.18
2022-10-26T21:43:27.567Z,77.47
2022-10-26T21:46:30.794Z,77.50
2022-10-26T21:49:35.471Z,68.07
2022-10-26T21:52:38.713Z,70.75
2022-10-26T21:55:41.921Z,72.65
2022-10-26T21:58:45.600Z,67.78
2022-10-26T22:01:48.971Z,70.40
2022-10-26T22:04:54.110Z,66.03
2022-10-26T22:07:57.777Z,62.22
2022-10-26T22:11:05.874Z,70.00
2022-10-26T22:14:09.290Z,63.42
2022-10-26T22:17:12.636Z,64.03
2022-10-26T22:20:17.725Z,60.85
2022-10-26T22:23:20.943Z,62.55
2022-10-26T22:26:25.516Z,64.03
2022-10-26T22:29:28.746Z,63.67
2022-10-26T22:32:32.142Z,63.88
2022-10-26T22:35:36.735Z,58.67
2022-10-26T22:38:40.489Z,59.65
2022-10-26T22:41:44.137Z,60.97
2022-10-26T22:44:47.458Z,62.38
2022-10-26T22:47:50.652Z,70.68
2022-10-26T22:50:55.236Z,65.75
2022-10-26T22:54:00.121Z,64.22
2022-10-26T22:57:03.543Z,63.20
2022-10-26T23:00:08.593Z,64.32
2022-10-26T23:03:11.949Z,61.10
2022-10-26T23:06:18.763Z,63.63
2022-10-26T23:09:22.149Z,63.72
2022-10-26T23:12:25.446Z,63.15
2022-10-26T23:15:28.635Z,59.30
2022-10-26T23:18:31.804Z,58.03
2022-10-26T23:21:36.727Z,60.45
2022-10-26T23:24:39.938Z,60.58
2022-10-26T23:27:43.149Z,58.88
2022-10-26T23:30:46.541Z,57.83
2022-10-26T23:33:51.882Z,57.22
2022-10-26T23:36:56.606Z,61.35
2022-10-26T23:40:00.057Z,60.28
2022-10-26T23:43:03.825Z,58.45
2022-10-26T23:46:07.096Z,57.22
2022-10-26T23:49:10.267Z,55.95
2022-10-26T23:52:14.953Z,58.72
2022-10-26T23:55:18.472Z,55.10
2022-10-26T23:58:25.382Z,54.55
